Roswell, Georgia
Current Conditions -  °F | °C
As of 8:53 AM on Monday 24 Nov 2014 (Local Time) from KPDK Reporting Station
Clear Clear  
Wind Chill: 63°   Ceiling: Unl
Heat Index: 63°   Visibility: 9mi
Dew Point: 58°   Wind: 13mph
Humidity: 84%   Direction: 210°SSW
Pressure: 29.79"   Gusts: NA
Location:  34.02°N, 84.36°W
Report Text: KPDK 241353Z 21011KT 9SM CLR 17/14 A2979 RMK AO2 SLP081 T01720144
Loading
Personal Weather Stations






























Interactive Weather Map New forecast layout! Learn more

10-Day Weather Forecast

Advertisements
Track Severe Weather on mobile